sensor_id;sensor_type;location;lat;lon;timestamp;temperature;humidity
34360;DHT22;20624;55.870;26.506;2023-02-08T00:08:21;-1.60;99.90
34360;DHT22;20624;55.870;26.506;2023-02-08T00:15:45;-1.60;99.90
34360;DHT22;20624;55.870;26.506;2023-02-08T00:20:42;-1.60;99.90
34360;DHT22;20624;55.870;26.506;2023-02-08T00:23:11;-1.60;99.90
34360;DHT22;20624;55.870;26.506;2023-02-08T00:28:11;-1.60;99.90
34360;DHT22;20624;55.870;26.506;2023-02-08T00:35:36;-1.60;99.90
34360;DHT22;20624;55.870;26.506;2023-02-08T00:40:31;-1.60;99.90
34360;DHT22;20624;55.870;26.506;2023-02-08T00:52:49;-1.60;99.90
34360;DHT22;20624;55.870;26.506;2023-02-08T01:39:38;-1.60;99.90
34360;DHT22;20624;55.870;26.506;2023-02-08T01:50:07;-1.70;99.90
34360;DHT22;20624;55.870;26.506;2023-02-08T01:52:34;-1.80;99.90
34360;DHT22;20624;55.870;26.506;2023-02-08T01:55:08;-1.80;99.90
34360;DHT22;20624;55.870;26.506;2023-02-08T01:57:37;-1.80;99.90
34360;DHT22;20624;55.870;26.506;2023-02-08T02:00:13;-2.00;99.90
34360;DHT22;20624;55.870;26.506;2023-02-08T02:07:43;-1.80;99.90
34360;DHT22;20624;55.870;26.506;2023-02-08T02:10:28;-2.00;99.90
34360;DHT22;20624;55.870;26.506;2023-02-08T02:12:59;-2.10;99.90
34360;DHT22;20624;55.870;26.506;2023-02-08T02:15:28;-2.10;99.90
34360;DHT22;20624;55.870;26.506;2023-02-08T02:17:56;-2.10;99.90
34360;DHT22;20624;55.870;26.506;2023-02-08T02:26:12;-2.20;99.90
34360;DHT22;20624;55.870;26.506;2023-02-08T02:34:25;-2.30;99.90
34360;DHT22;20624;55.870;26.506;2023-02-08T02:37:29;-2.30;99.90
34360;DHT22;20624;55.870;26.506;2023-02-08T02:40:12;-2.30;99.90
34360;DHT22;20624;55.870;26.506;2023-02-08T02:49:00;-2.40;99.90
34360;DHT22;20624;55.870;26.506;2023-02-08T02:54:33;-2.40;99.90
34360;DHT22;20624;55.870;26.506;2023-02-08T02:57:02;-2.40;99.90
34360;DHT22;20624;55.870;26.506;2023-02-08T02:59:35;-2.40;99.90
34360;DHT22;20624;55.870;26.506;2023-02-08T03:02:03;-2.40;99.90
34360;DHT22;20624;55.870;26.506;2023-02-08T03:13:00;-2.30;99.90
34360;DHT22;20624;55.870;26.506;2023-02-08T03:15:54;-2.30;99.90
34360;DHT22;20624;55.870;26.506;2023-02-08T03:21:19;-2.30;99.90
34360;DHT22;20624;55.870;26.506;2023-02-08T03:24:21;-2.30;99.90
34360;DHT22;20624;55.870;26.506;2023-02-08T03:37:36;-2.30;99.90
34360;DHT22;20624;55.870;26.506;2023-02-08T03:40:11;-2.30;99.90
34360;DHT22;20624;55.870;26.506;2023-02-08T03:45:15;-2.30;99.90
34360;DHT22;20624;55.870;26.506;2023-02-08T03:47:46;-2.30;99.90
34360;DHT22;20624;55.870;26.506;2023-02-08T03:50:16;-2.30;99.90
34360;DHT22;20624;55.870;26.506;2023-02-08T03:52:48;-2.30;99.90
34360;DHT22;20624;55.870;26.506;2023-02-08T03:55:26;-2.30;99.90
34360;DHT22;20624;55.870;26.506;2023-02-08T04:00:27;-2.20;99.90
34360;DHT22;20624;55.870;26.506;2023-02-08T04:03:00;-2.20;99.90
34360;DHT22;20624;55.870;26.506;2023-02-08T04:05:30;-2.20;99.90
34360;DHT22;20624;55.870;26.506;2023-02-08T04:07:57;-0.40;99.90
34360;DHT22;20624;55.870;26.506;2023-02-08T04:10:25;-2.20;99.90
34360;DHT22;20624;55.870;26.506;2023-02-08T04:12:53;-2.20;99.90
34360;DHT22;20624;55.870;26.506;2023-02-08T04:22:43;-2.10;99.90
34360;DHT22;20624;55.870;26.506;2023-02-08T04:25:11;-2.10;99.90
34360;DHT22;20624;55.870;26.506;2023-02-08T04:30:06;-2.00;99.90
34360;DHT22;20624;55.870;26.506;2023-02-08T04:32:33;-2.10;99.90
34360;DHT22;20624;55.870;26.506;2023-02-08T04:35:01;-2.00;99.90
34360;DHT22;20624;55.870;26.506;2023-02-08T04:39:56;-2.00;99.90
34360;DHT22;20624;55.870;26.506;2023-02-08T04:42:25;-2.00;99.90
34360;DHT22;20624;55.870;26.506;2023-02-08T04:44:52;-1.90;99.90
34360;DHT22;20624;55.870;26.506;2023-02-08T04:47:20;-1.90;99.90
34360;DHT22;20624;55.870;26.506;2023-02-08T04:49:47;-1.90;99.90
34360;DHT22;20624;55.870;26.506;2023-02-08T04:52:17;-1.90;99.90
34360;DHT22;20624;55.870;26.506;2023-02-08T04:54:45;-1.90;99.90
34360;DHT22;20624;55.870;26.506;2023-02-08T04:59:41;-1.90;99.90
34360;DHT22;20624;55.870;26.506;2023-02-08T05:02:08;-1.90;99.90
34360;DHT22;20624;55.870;26.506;2023-02-08T05:04:36;-1.90;99.90
34360;DHT22;20624;55.870;26.506;2023-02-08T05:09:31;-1.80;99.90
34360;DHT22;20624;55.870;26.506;2023-02-08T05:11:58;-1.80;99.90
34360;DHT22;20624;55.870;26.506;2023-02-08T05:14:27;-1.80;99.90
34360;DHT22;20624;55.870;26.506;2023-02-08T05:16:54;-1.80;99.90
34360;DHT22;20624;55.870;26.506;2023-02-08T05:24:17;-1.80;99.90
34360;DHT22;20624;55.870;26.506;2023-02-08T05:29:12;-1.70;99.90
34360;DHT22;20624;55.870;26.506;2023-02-08T05:31:41;-1.70;99.90
34360;DHT22;20624;55.870;26.506;2023-02-08T05:34:09;-1.70;99.90
34360;DHT22;20624;55.870;26.506;2023-02-08T05:36:36;-1.70;99.90
34360;DHT22;20624;55.870;26.506;2023-02-08T05:41:32;-1.70;99.90
34360;DHT22;20624;55.870;26.506;2023-02-08T05:46:27;-1.60;99.90
34360;DHT22;20624;55.870;26.506;2023-02-08T05:48:54;-1.60;99.90
34360;DHT22;20624;55.870;26.506;2023-02-08T05:51:22;-1.60;99.90
34360;DHT22;20624;55.870;26.506;2023-02-08T05:53:49;-1.70;99.90
34360;DHT22;20624;55.870;26.506;2023-02-08T05:58:44;-1.50;99.90
34360;DHT22;20624;55.870;26.506;2023-02-08T06:01:12;-1.50;99.90
34360;DHT22;20624;55.870;26.506;2023-02-08T06:03:40;-1.50;99.90
34360;DHT22;20624;55.870;26.506;2023-02-08T06:06:07;-1.50;99.90
34360;DHT22;20624;55.870;26.506;2023-02-08T06:08:37;-1.50;99.90
34360;DHT22;20624;55.870;26.506;2023-02-08T06:11:06;-1.30;99.90
34360;DHT22;20624;55.870;26.506;2023-02-08T06:13:34;-1.40;99.90
34360;DHT22;20624;55.870;26.506;2023-02-08T06:16:02;-1.40;99.90
34360;DHT22;20624;55.870;26.506;2023-02-08T06:18:30;-1.40;99.90
34360;DHT22;20624;55.870;26.506;2023-02-08T06:20:58;-1.30;99.90
34360;DHT22;20624;55.870;26.506;2023-02-08T06:28:21;-1.30;99.90
34360;DHT22;20624;55.870;26.506;2023-02-08T06:30:49;-1.20;99.90
34360;DHT22;20624;55.870;26.506;2023-02-08T06:35:46;-1.30;99.90
34360;DHT22;20624;55.870;26.506;2023-02-08T06:38:13;-1.20;99.90
34360;DHT22;20624;55.870;26.506;2023-02-08T06:43:09;-1.00;99.90
34360;DHT22;20624;55.870;26.506;2023-02-08T06:45:36;-1.00;99.90
34360;DHT22;20624;55.870;26.506;2023-02-08T06:50:31;-0.80;99.90
34360;DHT22;20624;55.870;26.506;2023-02-08T06:55:27;-0.70;99.90
34360;DHT22;20624;55.870;26.506;2023-02-08T07:00:22;-0.60;99.90
34360;DHT22;20624;55.870;26.506;2023-02-08T07:02:50;-0.50;99.90
34360;DHT22;20624;55.870;26.506;2023-02-08T07:07:46;-0.50;99.90
34360;DHT22;20624;55.870;26.506;2023-02-08T07:10:15;-0.40;99.90
34360;DHT22;20624;55.870;26.506;2023-02-08T07:12:43;-0.30;99.90
34360;DHT22;20624;55.870;26.506;2023-02-08T07:15:11;-0.20;99.90
34360;DHT22;20624;55.870;26.506;2023-02-08T07:17:39;-0.10;99.90
34360;DHT22;20624;55.870;26.506;2023-02-08T07:25:08;0.10;99.90
34360;DHT22;20624;55.870;26.506;2023-02-08T07:27:38;0.30;99.90
34360;DHT22;20624;55.870;26.506;2023-02-08T07:35:04;0.20;99.90
34360;DHT22;20624;55.870;26.506;2023-02-08T07:40:00;0.30;99.90
34360;DHT22;20624;55.870;26.506;2023-02-08T07:47:23;0.30;99.90
34360;DHT22;20624;55.870;26.506;2023-02-08T07:52:18;0.30;99.90
34360;DHT22;20624;55.870;26.506;2023-02-08T07:54:46;0.40;99.90
34360;DHT22;20624;55.870;26.506;2023-02-08T07:57:15;0.30;99.90
34360;DHT22;20624;55.870;26.506;2023-02-08T08:02:14;0.50;99.90
34360;DHT22;20624;55.870;26.506;2023-02-08T08:04:42;0.60;99.90
34360;DHT22;20624;55.870;26.506;2023-02-08T08:07:10;0.70;99.90
34360;DHT22;20624;55.870;26.506;2023-02-08T08:12:05;0.90;99.90
34360;DHT22;20624;55.870;26.506;2023-02-08T08:14:33;1.00;99.90
34360;DHT22;20624;55.870;26.506;2023-02-08T08:19:29;1.60;97.10
34360;DHT22;20624;55.870;26.506;2023-02-08T08:21:58;1.60;96.80
34360;DHT22;20624;55.870;26.506;2023-02-08T08:26:54;2.60;91.60
34360;DHT22;20624;55.870;26.506;2023-02-08T08:29:24;2.60;90.80
34360;DHT22;20624;55.870;26.506;2023-02-08T08:31:52;2.40;81.90
34360;DHT22;20624;55.870;26.506;2023-02-08T08:34:22;2.10;84.90
34360;DHT22;20624;55.870;26.506;2023-02-08T08:36:56;2.00;87.00
34360;DHT22;20624;55.870;26.506;2023-02-08T08:39:25;1.90;87.70
34360;DHT22;20624;55.870;26.506;2023-02-08T08:44:26;1.70;90.20
34360;DHT22;20624;55.870;26.506;2023-02-08T08:49:23;1.60;90.80
34360;DHT22;20624;55.870;26.506;2023-02-08T08:51:51;1.60;90.90
34360;DHT22;20624;55.870;26.506;2023-02-08T08:54:19;1.50;91.20
34360;DHT22;20624;55.870;26.506;2023-02-08T08:56:46;1.50;90.60
34360;DHT22;20624;55.870;26.506;2023-02-08T09:01:42;3.70;92.40
34360;DHT22;20624;55.870;26.506;2023-02-08T09:06:38;1.60;90.90
34360;DHT22;20624;55.870;26.506;2023-02-08T09:09:05;1.50;91.40
34360;DHT22;20624;55.870;26.506;2023-02-08T09:11:33;1.60;91.40
34360;DHT22;20624;55.870;26.506;2023-02-08T09:14:02;1.60;91.40
34360;DHT22;20624;55.870;26.506;2023-02-08T09:16:31;1.70;91.40
34360;DHT22;20624;55.870;26.506;2023-02-08T09:19:05;1.70;91.50
34360;DHT22;20624;55.870;26.506;2023-02-08T09:21:33;2.80;92.00
34360;DHT22;20624;55.870;26.506;2023-02-08T09:24:01;1.80;90.20
34360;DHT22;20624;55.870;26.506;2023-02-08T09:26:32;2.00;91.00
34360;DHT22;20624;55.870;26.506;2023-02-08T09:29:00;1.90;88.10
34360;DHT22;20624;55.870;26.506;2023-02-08T09:31:30;2.00;89.00
34360;DHT22;20624;55.870;26.506;2023-02-08T09:33:59;2.20;88.20
34360;DHT22;20624;55.870;26.506;2023-02-08T09:38:59;2.30;83.30
34360;DHT22;20624;55.870;26.506;2023-02-08T09:47:47;2.10;82.10
34360;DHT22;20624;55.870;26.506;2023-02-08T09:50:24;2.00;82.80
34360;DHT22;20624;55.870;26.506;2023-02-08T09:53:13;2.00;87.40
34360;DHT22;20624;55.870;26.506;2023-02-08T09:55:54;3.50;88.00
34360;DHT22;20624;55.870;26.506;2023-02-08T10:01:04;1.70;89.20
34360;DHT22;20624;55.870;26.506;2023-02-08T10:03:38;1.80;90.00
34360;DHT22;20624;55.870;26.506;2023-02-08T10:08:38;1.80;87.10
34360;DHT22;20624;55.870;26.506;2023-02-08T10:33:31;1.50;91.50
34360;DHT22;20624;55.870;26.506;2023-02-08T10:35:59;1.40;90.90
34360;DHT22;20624;55.870;26.506;2023-02-08T10:38:30;1.50;91.30
34360;DHT22;20624;55.870;26.506;2023-02-08T10:41:17;0.00;91.00
34360;DHT22;20624;55.870;26.506;2023-02-08T10:43:51;1.30;91.30
34360;DHT22;20624;55.870;26.506;2023-02-08T10:46:29;1.40;92.40
34360;DHT22;20624;55.870;26.506;2023-02-08T10:51:53;1.50;91.70
34360;DHT22;20624;55.870;26.506;2023-02-08T10:54:21;1.50;90.90
34360;DHT22;20624;55.870;26.506;2023-02-08T10:56:59;1.40;91.00
34360;DHT22;20624;55.870;26.506;2023-02-08T11:01:58;1.50;90.60
34360;DHT22;20624;55.870;26.506;2023-02-08T11:04:26;1.50;90.90
34360;DHT22;20624;55.870;26.506;2023-02-08T11:06:54;1.50;90.50
34360;DHT22;20624;55.870;26.506;2023-02-08T11:09:29;1.50;90.30
34360;DHT22;20624;55.870;26.506;2023-02-08T11:12:01;1.50;91.60
34360;DHT22;20624;55.870;26.506;2023-02-08T11:14:39;1.50;91.40
34360;DHT22;20624;55.870;26.506;2023-02-08T11:17:30;1.60;91.80
34360;DHT22;20624;55.870;26.506;2023-02-08T11:20:00;1.60;90.50
34360;DHT22;20624;55.870;26.506;2023-02-08T11:22:28;1.50;91.00
34360;DHT22;20624;55.870;26.506;2023-02-08T11:25:06;1.70;90.60
34360;DHT22;20624;55.870;26.506;2023-02-08T11:32:44;1.70;90.40
34360;DHT22;20624;55.870;26.506;2023-02-08T11:35:19;1.70;90.30
34360;DHT22;20624;55.870;26.506;2023-02-08T11:37:57;1.80;90.30
34360;DHT22;20624;55.870;26.506;2023-02-08T11:40:37;1.80;90.20
34360;DHT22;20624;55.870;26.506;2023-02-08T11:43:26;2.00;90.30
34360;DHT22;20624;55.870;26.506;2023-02-08T11:45:57;1.90;89.70
34360;DHT22;20624;55.870;26.506;2023-02-08T11:48:44;1.90;88.60
34360;DHT22;20624;55.870;26.506;2023-02-08T11:51:36;2.00;90.30
34360;DHT22;20624;55.870;26.506;2023-02-08T11:54:08;1.90;90.10
34360;DHT22;20624;55.870;26.506;2023-02-08T11:59:37;1.90;89.30
34360;DHT22;20624;55.870;26.506;2023-02-08T12:02:29;1.90;90.20
34360;DHT22;20624;55.870;26.506;2023-02-08T12:05:00;1.60;90.60
34360;DHT22;20624;55.870;26.506;2023-02-08T12:19:22;1.20;94.20
34360;DHT22;20624;55.870;26.506;2023-02-08T12:30:33;1.40;94.50
34360;DHT22;20624;55.870;26.506;2023-02-08T12:45:51;1.40;93.60
34360;DHT22;20624;55.870;26.506;2023-02-08T12:54:41;1.30;94.80
34360;DHT22;20624;55.870;26.506;2023-02-08T13:00:35;1.30;94.80
34360;DHT22;20624;55.870;26.506;2023-02-08T13:03:11;1.30;95.10
34360;DHT22;20624;55.870;26.506;2023-02-08T13:05:45;1.30;94.90
34360;DHT22;20624;55.870;26.506;2023-02-08T13:08:51;1.30;95.80
34360;DHT22;20624;55.870;26.506;2023-02-08T13:12:01;1.30;95.60
34360;DHT22;20624;55.870;26.506;2023-02-08T13:14:42;1.30;94.90
34360;DHT22;20624;55.870;26.506;2023-02-08T13:17:20;1.30;95.70
34360;DHT22;20624;55.870;26.506;2023-02-08T13:22:30;1.20;93.40
34360;DHT22;20624;55.870;26.506;2023-02-08T13:24:58;1.20;95.00
34360;DHT22;20624;55.870;26.506;2023-02-08T13:27:33;1.20;94.60
34360;DHT22;20624;55.870;26.506;2023-02-08T13:32:35;1.40;93.60
34360;DHT22;20624;55.870;26.506;2023-02-08T13:40:20;1.00;93.80
34360;DHT22;20624;55.870;26.506;2023-02-08T13:43:02;1.00;93.80
34360;DHT22;20624;55.870;26.506;2023-02-08T13:45:32;1.20;94.80
34360;DHT22;20624;55.870;26.506;2023-02-08T13:48:09;1.10;93.50
34360;DHT22;20624;55.870;26.506;2023-02-08T13:50:55;1.10;93.90
34360;DHT22;20624;55.870;26.506;2023-02-08T14:01:24;0.80;94.20
34360;DHT22;20624;55.870;26.506;2023-02-08T14:04:14;1.00;93.90
34360;DHT22;20624;55.870;26.506;2023-02-08T14:07:03;1.50;95.10
34360;DHT22;20624;55.870;26.506;2023-02-08T14:09:39;1.10;94.40
34360;DHT22;20624;55.870;26.506;2023-02-08T14:17:23;1.00;94.80
34360;DHT22;20624;55.870;26.506;2023-02-08T14:20:01;1.50;95.00
34360;DHT22;20624;55.870;26.506;2023-02-08T14:22:37;0.90;95.70
34360;DHT22;20624;55.870;26.506;2023-02-08T14:25:15;0.90;95.70
34360;DHT22;20624;55.870;26.506;2023-02-08T14:27:53;0.90;95.80
34360;DHT22;20624;55.870;26.506;2023-02-08T14:30:33;0.90;97.20
34360;DHT22;20624;55.870;26.506;2023-02-08T14:35:35;0.60;96.30
34360;DHT22;20624;55.870;26.506;2023-02-08T14:43:37;0.70;96.80
34360;DHT22;20624;55.870;26.506;2023-02-08T14:49:14;0.60;98.20
34360;DHT22;20624;55.870;26.506;2023-02-08T14:51:50;0.60;98.60
34360;DHT22;20624;55.870;26.506;2023-02-08T14:57:31;0.60;98.90
34360;DHT22;20624;55.870;26.506;2023-02-08T15:00:05;0.60;99.70
34360;DHT22;20624;55.870;26.506;2023-02-08T15:02:40;0.60;99.70
34360;DHT22;20624;55.870;26.506;2023-02-08T15:05:31;0.50;99.60
34360;DHT22;20624;55.870;26.506;2023-02-08T15:08:01;0.50;99.00
34360;DHT22;20624;55.870;26.506;2023-02-08T15:10:31;0.50;99.10
34360;DHT22;20624;55.870;26.506;2023-02-08T15:13:04;0.60;99.00
34360;DHT22;20624;55.870;26.506;2023-02-08T15:15:38;0.60;98.70
34360;DHT22;20624;55.870;26.506;2023-02-08T15:18:16;0.50;98.90
34360;DHT22;20624;55.870;26.506;2023-02-08T15:28:33;0.50;99.90
34360;DHT22;20624;55.870;26.506;2023-02-08T15:33:28;0.50;99.90
34360;DHT22;20624;55.870;26.506;2023-02-08T15:36:07;0.60;99.90
34360;DHT22;20624;55.870;26.506;2023-02-08T15:41:23;0.60;99.90
34360;DHT22;20624;55.870;26.506;2023-02-08T15:44:12;0.40;99.70
34360;DHT22;20624;55.870;26.506;2023-02-08T15:49:16;0.50;99.90
34360;DHT22;20624;55.870;26.506;2023-02-08T15:51:47;0.50;99.90
34360;DHT22;20624;55.870;26.506;2023-02-08T15:54:20;0.50;99.90
34360;DHT22;20624;55.870;26.506;2023-02-08T15:57:06;0.50;99.90
34360;DHT22;20624;55.870;26.506;2023-02-08T15:59:37;0.50;99.90
34360;DHT22;20624;55.870;26.506;2023-02-08T16:02:27;0.60;99.90
34360;DHT22;20624;55.870;26.506;2023-02-08T16:04:57;0.50;99.90
34360;DHT22;20624;55.870;26.506;2023-02-08T16:07:35;0.50;99.90
34360;DHT22;20624;55.870;26.506;2023-02-08T16:10:05;0.50;99.90
34360;DHT22;20624;55.870;26.506;2023-02-08T16:12:34;0.50;99.90
34360;DHT22;20624;55.870;26.506;2023-02-08T16:17:44;0.50;99.90
34360;DHT22;20624;55.870;26.506;2023-02-08T16:20:28;0.50;99.90
34360;DHT22;20624;55.870;26.506;2023-02-08T16:23:31;0.50;99.90
34360;DHT22;20624;55.870;26.506;2023-02-08T16:31:45;0.50;99.90
34360;DHT22;20624;55.870;26.506;2023-02-08T16:34:18;0.50;99.90
34360;DHT22;20624;55.870;26.506;2023-02-08T16:36:50;0.50;99.90
34360;DHT22;20624;55.870;26.506;2023-02-08T16:47:34;0.50;99.90
34360;DHT22;20624;55.870;26.506;2023-02-08T16:55:00;0.50;99.90
34360;DHT22;20624;55.870;26.506;2023-02-08T17:00:13;0.50;99.90
34360;DHT22;20624;55.870;26.506;2023-02-08T17:02:41;0.50;99.90
34360;DHT22;20624;55.870;26.506;2023-02-08T17:05:08;0.50;99.90
34360;DHT22;20624;55.870;26.506;2023-02-08T17:07:36;0.50;99.90
34360;DHT22;20624;55.870;26.506;2023-02-08T17:10:06;0.50;99.90
34360;DHT22;20624;55.870;26.506;2023-02-08T17:12:34;0.50;99.90
34360;DHT22;20624;55.870;26.506;2023-02-08T17:19:59;0.50;99.90
34360;DHT22;20624;55.870;26.506;2023-02-08T17:24:55;0.40;99.90
34360;DHT22;20624;55.870;26.506;2023-02-08T17:27:22;0.50;99.90
34360;DHT22;20624;55.870;26.506;2023-02-08T17:29:50;0.40;99.90
34360;DHT22;20624;55.870;26.506;2023-02-08T17:32:18;0.40;99.90
34360;DHT22;20624;55.870;26.506;2023-02-08T17:34:48;0.60;99.90
34360;DHT22;20624;55.870;26.506;2023-02-08T17:37:16;0.40;99.90
34360;DHT22;20624;55.870;26.506;2023-02-08T17:39:44;0.50;99.90
34360;DHT22;20624;55.870;26.506;2023-02-08T17:42:14;0.40;99.90
34360;DHT22;20624;55.870;26.506;2023-02-08T17:44:44;0.40;99.90
34360;DHT22;20624;55.870;26.506;2023-02-08T17:47:11;0.60;99.90
34360;DHT22;20624;55.870;26.506;2023-02-08T17:49:39;0.40;99.90
34360;DHT22;20624;55.870;26.506;2023-02-08T17:52:09;0.40;99.90
34360;DHT22;20624;55.870;26.506;2023-02-08T17:54:36;0.40;99.90
34360;DHT22;20624;55.870;26.506;2023-02-08T17:57:04;0.40;99.90
34360;DHT22;20624;55.870;26.506;2023-02-08T18:01:59;0.40;99.90
34360;DHT22;20624;55.870;26.506;2023-02-08T18:14:19;0.40;99.90
34360;DHT22;20624;55.870;26.506;2023-02-08T18:16:46;0.20;99.90
34360;DHT22;20624;55.870;26.506;2023-02-08T18:19:14;0.30;99.90
34360;DHT22;20624;55.870;26.506;2023-02-08T18:24:10;0.40;99.90
34360;DHT22;20624;55.870;26.506;2023-02-08T18:29:05;0.10;99.90
34360;DHT22;20624;55.870;26.506;2023-02-08T18:34:01;0.30;99.90
34360;DHT22;20624;55.870;26.506;2023-02-08T18:36:28;0.30;99.90
34360;DHT22;20624;55.870;26.506;2023-02-08T18:38:56;0.30;99.90
34360;DHT22;20624;55.870;26.506;2023-02-08T18:41:26;0.30;99.90
34360;DHT22;20624;55.870;26.506;2023-02-08T18:43:55;0.30;99.90
34360;DHT22;20624;55.870;26.506;2023-02-08T18:46:25;0.30;99.90
34360;DHT22;20624;55.870;26.506;2023-02-08T18:48:53;0.30;99.90
34360;DHT22;20624;55.870;26.506;2023-02-08T18:51:22;0.20;99.90
34360;DHT22;20624;55.870;26.506;2023-02-08T18:53:52;0.30;99.90
34360;DHT22;20624;55.870;26.506;2023-02-08T18:56:22;0.30;99.90
34360;DHT22;20624;55.870;26.506;2023-02-08T18:58:54;0.30;99.90
34360;DHT22;20624;55.870;26.506;2023-02-08T19:01:23;0.30;99.90
34360;DHT22;20624;55.870;26.506;2023-02-08T19:03:50;0.80;99.90
34360;DHT22;20624;55.870;26.506;2023-02-08T19:06:21;0.30;99.90
34360;DHT22;20624;55.870;26.506;2023-02-08T19:08:53;0.30;99.90
34360;DHT22;20624;55.870;26.506;2023-02-08T19:11:25;0.30;99.90
34360;DHT22;20624;55.870;26.506;2023-02-08T19:13:56;0.30;99.90
34360;DHT22;20624;55.870;26.506;2023-02-08T19:16:23;0.30;99.90
34360;DHT22;20624;55.870;26.506;2023-02-08T19:18:51;0.30;99.90
34360;DHT22;20624;55.870;26.506;2023-02-08T19:21:19;0.30;99.90
34360;DHT22;20624;55.870;26.506;2023-02-08T19:23:48;0.30;99.90
34360;DHT22;20624;55.870;26.506;2023-02-08T19:31:18;0.30;99.90
34360;DHT22;20624;55.870;26.506;2023-02-08T19:33:48;0.20;99.90
34360;DHT22;20624;55.870;26.506;2023-02-08T19:36:37;0.20;99.90
34360;DHT22;20624;55.870;26.506;2023-02-08T19:41:36;0.20;99.90
34360;DHT22;20624;55.870;26.506;2023-02-08T19:44:05;0.20;99.90
34360;DHT22;20624;55.870;26.506;2023-02-08T19:46:34;0.20;99.90
34360;DHT22;20624;55.870;26.506;2023-02-08T19:51:34;0.20;99.70
34360;DHT22;20624;55.870;26.506;2023-02-08T19:54:07;0.20;99.90
34360;DHT22;20624;55.870;26.506;2023-02-08T19:56:36;0.10;99.90
34360;DHT22;20624;55.870;26.506;2023-02-08T19:59:05;0.20;99.90
34360;DHT22;20624;55.870;26.506;2023-02-08T20:01:34;0.20;99.70
34360;DHT22;20624;55.870;26.506;2023-02-08T20:04:02;0.20;99.90
34360;DHT22;20624;55.870;26.506;2023-02-08T20:06:32;0.20;99.90
34360;DHT22;20624;55.870;26.506;2023-02-08T20:11:31;0.20;99.60
34360;DHT22;20624;55.870;26.506;2023-02-08T20:13:59;0.20;98.40
34360;DHT22;20624;55.870;26.506;2023-02-08T20:16:29;0.20;98.60
34360;DHT22;20624;55.870;26.506;2023-02-08T20:18:58;0.20;99.70
34360;DHT22;20624;55.870;26.506;2023-02-08T20:21:26;0.20;99.90
34360;DHT22;20624;55.870;26.506;2023-02-08T20:23:54;0.20;98.90
34360;DHT22;20624;55.870;26.506;2023-02-08T20:26:26;0.20;98.50
34360;DHT22;20624;55.870;26.506;2023-02-08T20:28:55;0.20;98.90
34360;DHT22;20624;55.870;26.506;2023-02-08T20:31:29;-0.20;99.60
34360;DHT22;20624;55.870;26.506;2023-02-08T20:33:59;0.20;99.10
34360;DHT22;20624;55.870;26.506;2023-02-08T20:36:28;0.20;99.00
34360;DHT22;20624;55.870;26.506;2023-02-08T20:38:57;0.20;99.20
34360;DHT22;20624;55.870;26.506;2023-02-08T20:41:26;0.20;99.60
34360;DHT22;20624;55.870;26.506;2023-02-08T20:43:54;0.10;99.80
34360;DHT22;20624;55.870;26.506;2023-02-08T20:46:24;0.10;99.90
34360;DHT22;20624;55.870;26.506;2023-02-08T20:48:52;0.20;99.90
34360;DHT22;20624;55.870;26.506;2023-02-08T20:51:24;0.20;99.90
34360;DHT22;20624;55.870;26.506;2023-02-08T20:53:53;-0.30;99.90
34360;DHT22;20624;55.870;26.506;2023-02-08T20:56:23;0.20;99.90
34360;DHT22;20624;55.870;26.506;2023-02-08T20:58:51;0.20;99.90
34360;DHT22;20624;55.870;26.506;2023-02-08T21:01:25;0.20;99.90
34360;DHT22;20624;55.870;26.506;2023-02-08T21:03:56;0.20;99.90
34360;DHT22;20624;55.870;26.506;2023-02-08T21:06:32;0.00;99.90
34360;DHT22;20624;55.870;26.506;2023-02-08T21:09:07;0.20;99.90
34360;DHT22;20624;55.870;26.506;2023-02-08T21:11:35;0.10;99.90
34360;DHT22;20624;55.870;26.506;2023-02-08T21:14:04;0.20;99.90
34360;DHT22;20624;55.870;26.506;2023-02-08T21:16:33;0.20;99.90
34360;DHT22;20624;55.870;26.506;2023-02-08T21:19:00;0.20;99.90
34360;DHT22;20624;55.870;26.506;2023-02-08T21:23:56;0.10;99.90
34360;DHT22;20624;55.870;26.506;2023-02-08T21:26:24;0.30;99.90
34360;DHT22;20624;55.870;26.506;2023-02-08T21:28:53;0.10;99.90
34360;DHT22;20624;55.870;26.506;2023-02-08T21:31:22;0.10;99.90
34360;DHT22;20624;55.870;26.506;2023-02-08T21:33:50;0.10;99.90
34360;DHT22;20624;55.870;26.506;2023-02-08T21:36:21;0.10;99.90
34360;DHT22;20624;55.870;26.506;2023-02-08T21:41:22;0.00;99.90
34360;DHT22;20624;55.870;26.506;2023-02-08T21:43:52;0.00;99.90
34360;DHT22;20624;55.870;26.506;2023-02-08T21:51:35;-0.20;99.90
34360;DHT22;20624;55.870;26.506;2023-02-08T21:54:23;-0.10;99.90
34360;DHT22;20624;55.870;26.506;2023-02-08T21:57:17;-0.10;99.90
34360;DHT22;20624;55.870;26.506;2023-02-08T21:59:50;-0.10;99.90
34360;DHT22;20624;55.870;26.506;2023-02-08T22:02:20;-0.10;99.90
34360;DHT22;20624;55.870;26.506;2023-02-08T22:07:53;-0.20;99.90
34360;DHT22;20624;55.870;26.506;2023-02-08T22:10:23;0.10;99.90
34360;DHT22;20624;55.870;26.506;2023-02-08T22:15:23;-0.30;99.90
34360;DHT22;20624;55.870;26.506;2023-02-08T22:17:57;-0.40;99.90
34360;DHT22;20624;55.870;26.506;2023-02-08T22:22:53;-0.60;99.90
34360;DHT22;20624;55.870;26.506;2023-02-08T22:30:18;-1.00;99.90
34360;DHT22;20624;55.870;26.506;2023-02-08T22:50:05;-1.50;99.90
34360;DHT22;20624;55.870;26.506;2023-02-08T22:52:33;-1.80;99.90
34360;DHT22;20624;55.870;26.506;2023-02-08T22:55:02;-1.70;99.90
34360;DHT22;20624;55.870;26.506;2023-02-08T22:57:31;-1.70;99.90
34360;DHT22;20624;55.870;26.506;2023-02-08T23:02:26;-1.80;99.90
34360;DHT22;20624;55.870;26.506;2023-02-08T23:04:54;-1.80;99.90
34360;DHT22;20624;55.870;26.506;2023-02-08T23:09:49;-1.90;99.90
34360;DHT22;20624;55.870;26.506;2023-02-08T23:14:45;-2.00;99.90
34360;DHT22;20624;55.870;26.506;2023-02-08T23:19:40;-2.00;99.90
34360;DHT22;20624;55.870;26.506;2023-02-08T23:27:04;-2.10;99.90
34360;DHT22;20624;55.870;26.506;2023-02-08T23:31:59;-2.20;99.90
34360;DHT22;20624;55.870;26.506;2023-02-08T23:36:54;-2.30;99.90
34360;DHT22;20624;55.870;26.506;2023-02-08T23:39:22;-2.30;99.90
34360;DHT22;20624;55.870;26.506;2023-02-08T23:44:18;-2.30;99.90
